sensor_id;sensor_type;location;lat;lon;timestamp;temperature;humidity
10030;DHT22;5055;52.054;8.524;2024-01-30T00:01:07;2.70;97.00
10030;DHT22;5055;52.054;8.524;2024-01-30T00:03:36;2.70;97.00
10030;DHT22;5055;52.054;8.524;2024-01-30T00:06:06;2.70;97.00
10030;DHT22;5055;52.054;8.524;2024-01-30T00:08:34;2.80;97.00
10030;DHT22;5055;52.054;8.524;2024-01-30T00:11:03;2.80;97.00
10030;DHT22;5055;52.054;8.524;2024-01-30T00:13:31;2.80;97.00
10030;DHT22;5055;52.054;8.524;2024-01-30T00:15:59;2.80;97.00
10030;DHT22;5055;52.054;8.524;2024-01-30T00:18:27;2.80;97.00
10030;DHT22;5055;52.054;8.524;2024-01-30T00:20:56;2.70;97.00
10030;DHT22;5055;52.054;8.524;2024-01-30T00:23:25;2.70;97.00
10030;DHT22;5055;52.054;8.524;2024-01-30T00:25:53;2.70;97.00
10030;DHT22;5055;52.054;8.524;2024-01-30T00:28:22;2.70;97.00
10030;DHT22;5055;52.054;8.524;2024-01-30T00:30:50;2.70;97.00
10030;DHT22;5055;52.054;8.524;2024-01-30T00:33:18;2.60;97.00
10030;DHT22;5055;52.054;8.524;2024-01-30T00:35:46;2.60;97.00
10030;DHT22;5055;52.054;8.524;2024-01-30T00:38:14;2.50;97.00
10030;DHT22;5055;52.054;8.524;2024-01-30T00:40:44;2.50;97.00
10030;DHT22;5055;52.054;8.524;2024-01-30T00:43:14;2.50;97.00
10030;DHT22;5055;52.054;8.524;2024-01-30T00:45:44;2.50;97.00
10030;DHT22;5055;52.054;8.524;2024-01-30T00:48:12;2.50;97.00
10030;DHT22;5055;52.054;8.524;2024-01-30T00:50:40;2.50;97.00
10030;DHT22;5055;52.054;8.524;2024-01-30T00:53:09;2.40;97.00
10030;DHT22;5055;52.054;8.524;2024-01-30T00:55:37;2.40;97.00
10030;DHT22;5055;52.054;8.524;2024-01-30T00:58:06;2.40;97.00
10030;DHT22;5055;52.054;8.524;2024-01-30T01:00:34;2.40;97.00
10030;DHT22;5055;52.054;8.524;2024-01-30T01:03:03;2.30;97.00
10030;DHT22;5055;52.054;8.524;2024-01-30T01:05:31;2.30;97.00
10030;DHT22;5055;52.054;8.524;2024-01-30T01:07:59;2.20;97.00
10030;DHT22;5055;52.054;8.524;2024-01-30T01:10:28;2.20;97.00
10030;DHT22;5055;52.054;8.524;2024-01-30T01:12:56;2.20;97.00
10030;DHT22;5055;52.054;8.524;2024-01-30T01:15:26;2.20;97.00
10030;DHT22;5055;52.054;8.524;2024-01-30T01:17:56;2.20;97.00
10030;DHT22;5055;52.054;8.524;2024-01-30T01:20:25;2.20;97.00
10030;DHT22;5055;52.054;8.524;2024-01-30T01:22:53;2.10;97.00
10030;DHT22;5055;52.054;8.524;2024-01-30T01:25:21;2.10;97.00
10030;DHT22;5055;52.054;8.524;2024-01-30T01:27:49;2.10;97.00
10030;DHT22;5055;52.054;8.524;2024-01-30T01:30:18;2.10;97.00
10030;DHT22;5055;52.054;8.524;2024-01-30T01:32:50;2.10;97.00
10030;DHT22;5055;52.054;8.524;2024-01-30T01:35:22;2.00;97.00
10030;DHT22;5055;52.054;8.524;2024-01-30T01:37:51;2.00;97.00
10030;DHT22;5055;52.054;8.524;2024-01-30T01:40:22;2.00;97.00
10030;DHT22;5055;52.054;8.524;2024-01-30T01:42:52;1.90;97.00
10030;DHT22;5055;52.054;8.524;2024-01-30T01:45:20;1.90;97.00
10030;DHT22;5055;52.054;8.524;2024-01-30T01:47:51;1.90;97.00
10030;DHT22;5055;52.054;8.524;2024-01-30T01:50:21;2.00;97.00
10030;DHT22;5055;52.054;8.524;2024-01-30T01:52:50;1.90;97.00
10030;DHT22;5055;52.054;8.524;2024-01-30T01:55:20;1.90;97.00
10030;DHT22;5055;52.054;8.524;2024-01-30T01:57:52;1.90;97.00
10030;DHT22;5055;52.054;8.524;2024-01-30T02:00:20;1.90;97.00
10030;DHT22;5055;52.054;8.524;2024-01-30T02:02:50;1.90;97.00
10030;DHT22;5055;52.054;8.524;2024-01-30T02:05:21;1.90;97.00
10030;DHT22;5055;52.054;8.524;2024-01-30T02:07:50;1.90;97.00
10030;DHT22;5055;52.054;8.524;2024-01-30T02:10:19;1.90;97.00
10030;DHT22;5055;52.054;8.524;2024-01-30T02:12:48;1.90;97.00
10030;DHT22;5055;52.054;8.524;2024-01-30T02:15:16;1.90;97.00
10030;DHT22;5055;52.054;8.524;2024-01-30T02:17:44;1.90;97.00
10030;DHT22;5055;52.054;8.524;2024-01-30T02:20:14;1.90;97.00
10030;DHT22;5055;52.054;8.524;2024-01-30T02:22:44;1.90;97.00
10030;DHT22;5055;52.054;8.524;2024-01-30T02:25:12;1.80;97.00
10030;DHT22;5055;52.054;8.524;2024-01-30T02:27:41;1.80;97.00
10030;DHT22;5055;52.054;8.524;2024-01-30T02:30:10;1.80;97.00
10030;DHT22;5055;52.054;8.524;2024-01-30T02:32:38;1.80;97.00
10030;DHT22;5055;52.054;8.524;2024-01-30T02:35:06;1.80;97.00
10030;DHT22;5055;52.054;8.524;2024-01-30T02:37:34;1.70;97.00
10030;DHT22;5055;52.054;8.524;2024-01-30T02:40:05;1.70;97.00
10030;DHT22;5055;52.054;8.524;2024-01-30T02:42:34;1.70;97.00
10030;DHT22;5055;52.054;8.524;2024-01-30T02:45:02;1.70;97.00
10030;DHT22;5055;52.054;8.524;2024-01-30T02:47:30;1.80;97.00
10030;DHT22;5055;52.054;8.524;2024-01-30T02:49:58;1.80;97.00
10030;DHT22;5055;52.054;8.524;2024-01-30T02:52:27;1.80;97.00
10030;DHT22;5055;52.054;8.524;2024-01-30T02:54:55;1.80;97.00
10030;DHT22;5055;52.054;8.524;2024-01-30T02:57:24;1.70;97.00
10030;DHT22;5055;52.054;8.524;2024-01-30T02:59:52;1.70;97.00
10030;DHT22;5055;52.054;8.524;2024-01-30T03:02:20;1.70;97.00
10030;DHT22;5055;52.054;8.524;2024-01-30T03:04:49;1.70;97.00
10030;DHT22;5055;52.054;8.524;2024-01-30T03:07:17;1.70;97.00
10030;DHT22;5055;52.054;8.524;2024-01-30T03:09:45;1.70;97.00
10030;DHT22;5055;52.054;8.524;2024-01-30T03:12:13;1.80;97.00
10030;DHT22;5055;52.054;8.524;2024-01-30T03:14:43;1.80;97.00
10030;DHT22;5055;52.054;8.524;2024-01-30T03:17:11;1.80;97.00
10030;DHT22;5055;52.054;8.524;2024-01-30T03:19:39;1.80;97.00
10030;DHT22;5055;52.054;8.524;2024-01-30T03:22:07;1.80;97.00
10030;DHT22;5055;52.054;8.524;2024-01-30T03:24:36;1.90;97.00
10030;DHT22;5055;52.054;8.524;2024-01-30T03:27:04;2.00;97.00
10030;DHT22;5055;52.054;8.524;2024-01-30T03:29:32;2.00;97.00
10030;DHT22;5055;52.054;8.524;2024-01-30T03:32:02;2.10;97.00
10030;DHT22;5055;52.054;8.524;2024-01-30T03:34:30;2.20;97.00
10030;DHT22;5055;52.054;8.524;2024-01-30T03:36:59;2.20;97.00
10030;DHT22;5055;52.054;8.524;2024-01-30T03:39:27;2.30;97.00
10030;DHT22;5055;52.054;8.524;2024-01-30T03:41:55;2.40;97.00
10030;DHT22;5055;52.054;8.524;2024-01-30T03:44:23;2.40;97.00
10030;DHT22;5055;52.054;8.524;2024-01-30T03:46:51;2.50;97.00
10030;DHT22;5055;52.054;8.524;2024-01-30T03:49:21;2.50;97.00
10030;DHT22;5055;52.054;8.524;2024-01-30T03:51:49;2.60;97.00
10030;DHT22;5055;52.054;8.524;2024-01-30T03:54:17;2.60;97.00
10030;DHT22;5055;52.054;8.524;2024-01-30T03:56:45;2.60;97.00
10030;DHT22;5055;52.054;8.524;2024-01-30T03:59:13;2.70;97.00
10030;DHT22;5055;52.054;8.524;2024-01-30T04:01:41;2.70;97.00
10030;DHT22;5055;52.054;8.524;2024-01-30T04:04:09;2.70;97.00
10030;DHT22;5055;52.054;8.524;2024-01-30T04:06:39;2.80;97.00
10030;DHT22;5055;52.054;8.524;2024-01-30T04:09:07;2.80;97.00
10030;DHT22;5055;52.054;8.524;2024-01-30T04:11:35;2.80;97.00
10030;DHT22;5055;52.054;8.524;2024-01-30T04:14:03;2.80;97.00
10030;DHT22;5055;52.054;8.524;2024-01-30T04:16:31;2.80;97.00
10030;DHT22;5055;52.054;8.524;2024-01-30T04:18:59;2.80;97.00
10030;DHT22;5055;52.054;8.524;2024-01-30T04:21:28;2.80;97.00
10030;DHT22;5055;52.054;8.524;2024-01-30T04:23:58;2.90;97.00
10030;DHT22;5055;52.054;8.524;2024-01-30T04:26:26;2.90;97.00
10030;DHT22;5055;52.054;8.524;2024-01-30T04:28:54;2.90;97.00
10030;DHT22;5055;52.054;8.524;2024-01-30T04:31:22;2.90;97.00
10030;DHT22;5055;52.054;8.524;2024-01-30T04:33:50;2.90;97.00
10030;DHT22;5055;52.054;8.524;2024-01-30T04:36:19;3.00;97.00
10030;DHT22;5055;52.054;8.524;2024-01-30T04:38:47;3.10;97.00
10030;DHT22;5055;52.054;8.524;2024-01-30T04:41:16;3.10;97.00
10030;DHT22;5055;52.054;8.524;2024-01-30T04:43:44;3.20;97.00
10030;DHT22;5055;52.054;8.524;2024-01-30T04:46:13;3.20;97.00
10030;DHT22;5055;52.054;8.524;2024-01-30T04:48:41;3.20;97.00
10030;DHT22;5055;52.054;8.524;2024-01-30T04:51:09;3.30;97.00
10030;DHT22;5055;52.054;8.524;2024-01-30T04:53:37;3.30;97.00
10030;DHT22;5055;52.054;8.524;2024-01-30T04:56:06;3.30;97.00
10030;DHT22;5055;52.054;8.524;2024-01-30T04:58:36;3.30;97.00
10030;DHT22;5055;52.054;8.524;2024-01-30T05:01:04;3.40;97.00
10030;DHT22;5055;52.054;8.524;2024-01-30T05:03:33;3.40;97.00
10030;DHT22;5055;52.054;8.524;2024-01-30T05:06:02;3.50;97.00
10030;DHT22;5055;52.054;8.524;2024-01-30T05:08:30;3.50;97.00
10030;DHT22;5055;52.054;8.524;2024-01-30T05:11:00;3.50;97.00
10030;DHT22;5055;52.054;8.524;2024-01-30T05:13:29;3.60;97.00
10030;DHT22;5055;52.054;8.524;2024-01-30T05:16:02;3.60;97.00
10030;DHT22;5055;52.054;8.524;2024-01-30T05:18:30;3.60;97.00
10030;DHT22;5055;52.054;8.524;2024-01-30T05:20:59;3.70;97.00
10030;DHT22;5055;52.054;8.524;2024-01-30T05:23:27;3.80;97.00
10030;DHT22;5055;52.054;8.524;2024-01-30T05:25:55;3.80;97.00
10030;DHT22;5055;52.054;8.524;2024-01-30T05:28:23;3.80;97.00
10030;DHT22;5055;52.054;8.524;2024-01-30T05:30:51;3.90;97.00
10030;DHT22;5055;52.054;8.524;2024-01-30T05:33:21;4.00;97.00
10030;DHT22;5055;52.054;8.524;2024-01-30T05:35:49;3.90;97.00
10030;DHT22;5055;52.054;8.524;2024-01-30T05:38:17;3.90;97.00
10030;DHT22;5055;52.054;8.524;2024-01-30T05:40:45;4.00;97.00
10030;DHT22;5055;52.054;8.524;2024-01-30T05:43:13;4.00;97.00
10030;DHT22;5055;52.054;8.524;2024-01-30T05:45:41;3.90;97.00
10030;DHT22;5055;52.054;8.524;2024-01-30T05:48:09;4.00;97.00
10030;DHT22;5055;52.054;8.524;2024-01-30T05:50:39;3.90;97.00
10030;DHT22;5055;52.054;8.524;2024-01-30T05:53:07;3.80;97.00
10030;DHT22;5055;52.054;8.524;2024-01-30T05:55:35;3.70;97.00
10030;DHT22;5055;52.054;8.524;2024-01-30T05:58:04;3.60;97.00
10030;DHT22;5055;52.054;8.524;2024-01-30T06:00:32;3.50;97.00
10030;DHT22;5055;52.054;8.524;2024-01-30T06:03:00;3.50;97.00
10030;DHT22;5055;52.054;8.524;2024-01-30T06:05:28;3.40;97.00
10030;DHT22;5055;52.054;8.524;2024-01-30T06:07:58;3.40;97.00
10030;DHT22;5055;52.054;8.524;2024-01-30T06:10:26;3.40;97.00
10030;DHT22;5055;52.054;8.524;2024-01-30T06:12:54;3.40;97.00
10030;DHT22;5055;52.054;8.524;2024-01-30T06:15:22;3.50;97.00
10030;DHT22;5055;52.054;8.524;2024-01-30T06:17:51;3.60;97.00
10030;DHT22;5055;52.054;8.524;2024-01-30T06:20:19;3.70;97.00
10030;DHT22;5055;52.054;8.524;2024-01-30T06:22:47;3.70;97.00
10030;DHT22;5055;52.054;8.524;2024-01-30T06:25:17;3.70;97.00
10030;DHT22;5055;52.054;8.524;2024-01-30T06:27:45;3.60;97.00
10030;DHT22;5055;52.054;8.524;2024-01-30T06:30:13;3.60;97.00
10030;DHT22;5055;52.054;8.524;2024-01-30T06:32:42;3.50;97.00
10030;DHT22;5055;52.054;8.524;2024-01-30T06:35:10;3.50;97.00
10030;DHT22;5055;52.054;8.524;2024-01-30T06:37:39;3.50;97.00
10030;DHT22;5055;52.054;8.524;2024-01-30T06:40:08;3.50;97.00
10030;DHT22;5055;52.054;8.524;2024-01-30T06:42:38;3.50;97.00
10030;DHT22;5055;52.054;8.524;2024-01-30T06:45:07;3.50;97.00
10030;DHT22;5055;52.054;8.524;2024-01-30T06:47:35;3.50;97.00
10030;DHT22;5055;52.054;8.524;2024-01-30T06:50:05;3.50;97.00
10030;DHT22;5055;52.054;8.524;2024-01-30T06:52:33;3.60;97.00
10030;DHT22;5055;52.054;8.524;2024-01-30T06:55:01;3.60;97.00
10030;DHT22;5055;52.054;8.524;2024-01-30T06:57:30;3.60;97.00
10030;DHT22;5055;52.054;8.524;2024-01-30T07:00:00;3.60;97.00
10030;DHT22;5055;52.054;8.524;2024-01-30T07:02:28;3.70;97.00
10030;DHT22;5055;52.054;8.524;2024-01-30T07:04:56;3.80;97.00
10030;DHT22;5055;52.054;8.524;2024-01-30T07:07:24;4.00;97.00
10030;DHT22;5055;52.054;8.524;2024-01-30T07:09:53;4.10;97.00
10030;DHT22;5055;52.054;8.524;2024-01-30T07:12:24;4.20;97.00
10030;DHT22;5055;52.054;8.524;2024-01-30T07:14:53;4.30;97.00
10030;DHT22;5055;52.054;8.524;2024-01-30T07:17:24;4.40;97.00
10030;DHT22;5055;52.054;8.524;2024-01-30T07:19:53;4.40;97.00
10030;DHT22;5055;52.054;8.524;2024-01-30T07:22:21;4.50;97.00
10030;DHT22;5055;52.054;8.524;2024-01-30T07:24:49;4.50;97.00
10030;DHT22;5055;52.054;8.524;2024-01-30T07:27:19;4.50;97.00
10030;DHT22;5055;52.054;8.524;2024-01-30T07:29:49;4.40;97.00
10030;DHT22;5055;52.054;8.524;2024-01-30T07:32:17;4.40;97.00
10030;DHT22;5055;52.054;8.524;2024-01-30T07:34:47;4.30;97.00
10030;DHT22;5055;52.054;8.524;2024-01-30T07:37:32;4.20;97.00
10030;DHT22;5055;52.054;8.524;2024-01-30T07:40:02;4.20;97.00
10030;DHT22;5055;52.054;8.524;2024-01-30T07:42:31;4.10;97.00
10030;DHT22;5055;52.054;8.524;2024-01-30T07:45:00;4.10;97.00
10030;DHT22;5055;52.054;8.524;2024-01-30T07:47:28;4.10;97.00
10030;DHT22;5055;52.054;8.524;2024-01-30T07:49:58;4.20;97.00
10030;DHT22;5055;52.054;8.524;2024-01-30T07:52:26;4.20;97.00
10030;DHT22;5055;52.054;8.524;2024-01-30T07:54:55;4.20;97.00
10030;DHT22;5055;52.054;8.524;2024-01-30T07:57:23;4.20;97.00
10030;DHT22;5055;52.054;8.524;2024-01-30T07:59:51;4.30;97.00
10030;DHT22;5055;52.054;8.524;2024-01-30T08:02:19;4.40;97.00
10030;DHT22;5055;52.054;8.524;2024-01-30T08:04:49;4.50;97.00
10030;DHT22;5055;52.054;8.524;2024-01-30T08:07:19;4.50;97.00
10030;DHT22;5055;52.054;8.524;2024-01-30T08:09:49;4.50;97.00
10030;DHT22;5055;52.054;8.524;2024-01-30T08:12:17;4.60;97.00
10030;DHT22;5055;52.054;8.524;2024-01-30T08:14:45;4.90;97.00
10030;DHT22;5055;52.054;8.524;2024-01-30T08:17:13;5.10;97.00
10030;DHT22;5055;52.054;8.524;2024-01-30T08:19:41;5.20;97.00
10030;DHT22;5055;52.054;8.524;2024-01-30T08:22:09;5.40;97.00
10030;DHT22;5055;52.054;8.524;2024-01-30T08:24:40;5.50;97.00
10030;DHT22;5055;52.054;8.524;2024-01-30T08:27:08;5.60;97.00
10030;DHT22;5055;52.054;8.524;2024-01-30T08:29:37;5.80;97.00
10030;DHT22;5055;52.054;8.524;2024-01-30T08:32:06;6.00;97.00
10030;DHT22;5055;52.054;8.524;2024-01-30T08:34:34;6.10;97.00
10030;DHT22;5055;52.054;8.524;2024-01-30T08:37:03;6.20;97.00
10030;DHT22;5055;52.054;8.524;2024-01-30T08:39:31;6.50;97.00
10030;DHT22;5055;52.054;8.524;2024-01-30T08:42:00;6.70;97.00
10030;DHT22;5055;52.054;8.524;2024-01-30T08:44:29;6.80;97.00
10030;DHT22;5055;52.054;8.524;2024-01-30T08:46:57;7.00;97.00
10030;DHT22;5055;52.054;8.524;2024-01-30T08:49:26;7.20;97.00
10030;DHT22;5055;52.054;8.524;2024-01-30T08:51:54;7.40;97.00
10030;DHT22;5055;52.054;8.524;2024-01-30T08:54:23;7.60;97.00
10030;DHT22;5055;52.054;8.524;2024-01-30T08:56:51;7.90;97.00
10030;DHT22;5055;52.054;8.524;2024-01-30T08:59:21;8.10;97.00
10030;DHT22;5055;52.054;8.524;2024-01-30T09:01:49;8.30;97.00
10030;DHT22;5055;52.054;8.524;2024-01-30T09:04:32;8.40;97.00
10030;DHT22;5055;52.054;8.524;2024-01-30T09:07:01;8.60;97.00
10030;DHT22;5055;52.054;8.524;2024-01-30T09:09:29;8.80;97.00
10030;DHT22;5055;52.054;8.524;2024-01-30T09:11:57;8.90;97.00
10030;DHT22;5055;52.054;8.524;2024-01-30T09:14:32;9.00;97.00
10030;DHT22;5055;52.054;8.524;2024-01-30T09:17:00;9.10;97.00
10030;DHT22;5055;52.054;8.524;2024-01-30T09:19:30;9.30;97.00
10030;DHT22;5055;52.054;8.524;2024-01-30T09:21:59;9.50;97.00
10030;DHT22;5055;52.054;8.524;2024-01-30T09:24:27;9.70;97.00
10030;DHT22;5055;52.054;8.524;2024-01-30T09:26:55;9.90;97.00
10030;DHT22;5055;52.054;8.524;2024-01-30T09:29:24;10.00;97.00
10030;DHT22;5055;52.054;8.524;2024-01-30T09:31:54;10.10;97.00
10030;DHT22;5055;52.054;8.524;2024-01-30T09:34:22;10.30;97.00
10030;DHT22;5055;52.054;8.524;2024-01-30T09:36:50;10.40;97.00
10030;DHT22;5055;52.054;8.524;2024-01-30T09:39:18;10.50;97.00
10030;DHT22;5055;52.054;8.524;2024-01-30T09:41:49;10.60;97.00
10030;DHT22;5055;52.054;8.524;2024-01-30T09:44:20;10.70;97.00
10030;DHT22;5055;52.054;8.524;2024-01-30T09:46:49;10.70;97.00
10030;DHT22;5055;52.054;8.524;2024-01-30T09:49:20;10.80;97.00
10030;DHT22;5055;52.054;8.524;2024-01-30T09:51:52;10.80;97.00
10030;DHT22;5055;52.054;8.524;2024-01-30T09:54:21;10.80;97.00
10030;DHT22;5055;52.054;8.524;2024-01-30T09:56:49;10.80;97.00
10030;DHT22;5055;52.054;8.524;2024-01-30T09:59:18;10.80;97.00
10030;DHT22;5055;52.054;8.524;2024-01-30T10:01:46;10.80;97.00
10030;DHT22;5055;52.054;8.524;2024-01-30T10:04:15;10.80;97.00
10030;DHT22;5055;52.054;8.524;2024-01-30T10:06:45;10.80;97.00
10030;DHT22;5055;52.054;8.524;2024-01-30T10:09:14;10.80;97.00
10030;DHT22;5055;52.054;8.524;2024-01-30T10:11:42;10.80;97.00
10030;DHT22;5055;52.054;8.524;2024-01-30T10:14:10;10.80;97.00
10030;DHT22;5055;52.054;8.524;2024-01-30T10:16:38;10.80;97.00
10030;DHT22;5055;52.054;8.524;2024-01-30T10:19:06;10.90;97.00
10030;DHT22;5055;52.054;8.524;2024-01-30T10:21:35;10.90;97.00
10030;DHT22;5055;52.054;8.524;2024-01-30T10:24:05;11.00;97.00
10030;DHT22;5055;52.054;8.524;2024-01-30T10:26:33;11.20;97.00
10030;DHT22;5055;52.054;8.524;2024-01-30T10:29:02;11.30;97.00
10030;DHT22;5055;52.054;8.524;2024-01-30T10:31:30;11.50;97.00
10030;DHT22;5055;52.054;8.524;2024-01-30T10:33:58;11.50;97.00
10030;DHT22;5055;52.054;8.524;2024-01-30T10:36:43;11.60;97.00
10030;DHT22;5055;52.054;8.524;2024-01-30T10:39:17;11.80;97.00
10030;DHT22;5055;52.054;8.524;2024-01-30T10:41:47;12.00;97.00
10030;DHT22;5055;52.054;8.524;2024-01-30T10:44:19;12.20;97.00
10030;DHT22;5055;52.054;8.524;2024-01-30T10:46:51;12.30;97.00
10030;DHT22;5055;52.054;8.524;2024-01-30T10:49:23;12.50;97.00
10030;DHT22;5055;52.054;8.524;2024-01-30T10:51:52;12.80;97.00
10030;DHT22;5055;52.054;8.524;2024-01-30T10:54:25;13.00;97.00
10030;DHT22;5055;52.054;8.524;2024-01-30T10:56:55;13.20;97.00
10030;DHT22;5055;52.054;8.524;2024-01-30T10:59:25;13.20;97.00
10030;DHT22;5055;52.054;8.524;2024-01-30T11:01:55;13.20;97.00
10030;DHT22;5055;52.054;8.524;2024-01-30T11:04:23;13.20;97.00
10030;DHT22;5055;52.054;8.524;2024-01-30T11:06:52;13.20;97.00
10030;DHT22;5055;52.054;8.524;2024-01-30T11:09:23;13.10;97.00
10030;DHT22;5055;52.054;8.524;2024-01-30T11:11:52;13.10;97.00
10030;DHT22;5055;52.054;8.524;2024-01-30T11:14:27;13.20;97.00
10030;DHT22;5055;52.054;8.524;2024-01-30T11:16:57;13.10;97.00
10030;DHT22;5055;52.054;8.524;2024-01-30T11:19:27;13.10;97.00
10030;DHT22;5055;52.054;8.524;2024-01-30T11:21:56;13.10;97.00
10030;DHT22;5055;52.054;8.524;2024-01-30T11:24:26;13.10;97.00
10030;DHT22;5055;52.054;8.524;2024-01-30T11:26:56;13.10;97.00
10030;DHT22;5055;52.054;8.524;2024-01-30T11:29:25;13.00;97.00
10030;DHT22;5055;52.054;8.524;2024-01-30T11:31:55;12.90;97.00
10030;DHT22;5055;52.054;8.524;2024-01-30T11:34:24;12.80;97.00
10030;DHT22;5055;52.054;8.524;2024-01-30T11:36:56;12.80;97.00
10030;DHT22;5055;52.054;8.524;2024-01-30T11:39:29;12.70;97.00
10030;DHT22;5055;52.054;8.524;2024-01-30T11:41:59;12.70;97.00
10030;DHT22;5055;52.054;8.524;2024-01-30T11:44:28;12.70;97.00
10030;DHT22;5055;52.054;8.524;2024-01-30T11:46:56;12.70;97.00
10030;DHT22;5055;52.054;8.524;2024-01-30T11:49:25;12.70;97.00
10030;DHT22;5055;52.054;8.524;2024-01-30T11:51:53;12.80;97.00
10030;DHT22;5055;52.054;8.524;2024-01-30T11:54:21;12.80;97.00
10030;DHT22;5055;52.054;8.524;2024-01-30T11:56:51;12.80;97.00
10030;DHT22;5055;52.054;8.524;2024-01-30T11:59:19;12.90;97.00
10030;DHT22;5055;52.054;8.524;2024-01-30T12:01:48;12.80;97.00
10030;DHT22;5055;52.054;8.524;2024-01-30T12:04:16;12.80;97.00
10030;DHT22;5055;52.054;8.524;2024-01-30T12:06:44;12.80;97.00
10030;DHT22;5055;52.054;8.524;2024-01-30T12:09:12;12.80;97.00
10030;DHT22;5055;52.054;8.524;2024-01-30T12:11:44;12.80;97.00
10030;DHT22;5055;52.054;8.524;2024-01-30T12:14:14;12.70;97.00
10030;DHT22;5055;52.054;8.524;2024-01-30T12:16:43;12.60;97.00
10030;DHT22;5055;52.054;8.524;2024-01-30T12:19:11;12.60;97.00
10030;DHT22;5055;52.054;8.524;2024-01-30T12:21:54;12.60;97.00
10030;DHT22;5055;52.054;8.524;2024-01-30T12:24:22;12.60;97.00
10030;DHT22;5055;52.054;8.524;2024-01-30T12:26:51;12.60;97.00
10030;DHT22;5055;52.054;8.524;2024-01-30T12:29:21;12.60;97.00
10030;DHT22;5055;52.054;8.524;2024-01-30T12:31:53;12.60;97.00
10030;DHT22;5055;52.054;8.524;2024-01-30T12:34:21;12.60;97.00
10030;DHT22;5055;52.054;8.524;2024-01-30T12:36:50;12.60;97.00
10030;DHT22;5055;52.054;8.524;2024-01-30T12:39:19;12.50;97.00
10030;DHT22;5055;52.054;8.524;2024-01-30T12:41:47;12.60;97.00
10030;DHT22;5055;52.054;8.524;2024-01-30T12:44:15;12.60;97.00
10030;DHT22;5055;52.054;8.524;2024-01-30T12:46:47;12.60;97.00
10030;DHT22;5055;52.054;8.524;2024-01-30T12:49:15;12.70;97.00
10030;DHT22;5055;52.054;8.524;2024-01-30T12:51:43;12.70;97.00
10030;DHT22;5055;52.054;8.524;2024-01-30T12:54:12;12.70;97.00
10030;DHT22;5055;52.054;8.524;2024-01-30T12:56:41;12.70;97.00
10030;DHT22;5055;52.054;8.524;2024-01-30T12:59:09;12.80;97.00
10030;DHT22;5055;52.054;8.524;2024-01-30T13:01:37;12.80;97.00
10030;DHT22;5055;52.054;8.524;2024-01-30T13:04:07;12.70;97.00
10030;DHT22;5055;52.054;8.524;2024-01-30T13:06:35;12.80;97.00
10030;DHT22;5055;52.054;8.524;2024-01-30T13:09:04;12.80;97.00
10030;DHT22;5055;52.054;8.524;2024-01-30T13:11:32;12.80;97.00
10030;DHT22;5055;52.054;8.524;2024-01-30T13:14:01;12.90;97.00
10030;DHT22;5055;52.054;8.524;2024-01-30T13:16:30;12.90;97.00
10030;DHT22;5055;52.054;8.524;2024-01-30T13:18:58;13.00;97.00
10030;DHT22;5055;52.054;8.524;2024-01-30T13:21:29;13.00;97.00
10030;DHT22;5055;52.054;8.524;2024-01-30T13:23:57;13.00;97.00
10030;DHT22;5055;52.054;8.524;2024-01-30T13:26:25;13.10;97.00
10030;DHT22;5055;52.054;8.524;2024-01-30T13:28:54;13.00;97.00
10030;DHT22;5055;52.054;8.524;2024-01-30T13:31:22;13.00;97.00
10030;DHT22;5055;52.054;8.524;2024-01-30T13:33:50;12.90;97.00
10030;DHT22;5055;52.054;8.524;2024-01-30T13:36:24;12.90;97.00
10030;DHT22;5055;52.054;8.524;2024-01-30T13:39:13;12.90;97.00
10030;DHT22;5055;52.054;8.524;2024-01-30T13:41:42;12.80;97.00
10030;DHT22;5055;52.054;8.524;2024-01-30T13:44:10;12.80;97.00
10030;DHT22;5055;52.054;8.524;2024-01-30T13:46:38;12.80;97.00
10030;DHT22;5055;52.054;8.524;2024-01-30T13:49:06;12.80;97.00
10030;DHT22;5055;52.054;8.524;2024-01-30T13:51:35;12.80;97.00
10030;DHT22;5055;52.054;8.524;2024-01-30T13:54:03;12.70;97.00
10030;DHT22;5055;52.054;8.524;2024-01-30T13:56:32;12.70;97.00
10030;DHT22;5055;52.054;8.524;2024-01-30T13:59:00;12.70;97.00
10030;DHT22;5055;52.054;8.524;2024-01-30T14:01:32;12.70;97.00
10030;DHT22;5055;52.054;8.524;2024-01-30T14:04:00;12.70;97.00
10030;DHT22;5055;52.054;8.524;2024-01-30T14:06:30;12.70;97.00
10030;DHT22;5055;52.054;8.524;2024-01-30T14:08:59;12.70;97.00
10030;DHT22;5055;52.054;8.524;2024-01-30T14:11:35;12.70;97.00
10030;DHT22;5055;52.054;8.524;2024-01-30T14:14:03;12.70;97.00
10030;DHT22;5055;52.054;8.524;2024-01-30T14:16:31;12.60;97.00
10030;DHT22;5055;52.054;8.524;2024-01-30T14:19:00;12.60;97.00
10030;DHT22;5055;52.054;8.524;2024-01-30T14:21:28;12.60;97.00
10030;DHT22;5055;52.054;8.524;2024-01-30T14:23:56;12.50;97.00
10030;DHT22;5055;52.054;8.524;2024-01-30T14:26:25;12.50;97.00
10030;DHT22;5055;52.054;8.524;2024-01-30T14:28:54;12.50;97.00
10030;DHT22;5055;52.054;8.524;2024-01-30T14:31:22;12.40;97.00
10030;DHT22;5055;52.054;8.524;2024-01-30T14:33:51;12.40;97.00
10030;DHT22;5055;52.054;8.524;2024-01-30T14:36:19;12.40;97.00
10030;DHT22;5055;52.054;8.524;2024-01-30T14:38:47;12.40;97.00
10030;DHT22;5055;52.054;8.524;2024-01-30T14:41:15;12.40;97.00
10030;DHT22;5055;52.054;8.524;2024-01-30T14:43:44;12.40;97.00
10030;DHT22;5055;52.054;8.524;2024-01-30T14:46:13;12.40;97.00
10030;DHT22;5055;52.054;8.524;2024-01-30T14:48:42;12.40;97.00
10030;DHT22;5055;52.054;8.524;2024-01-30T14:51:10;12.30;97.00
10030;DHT22;5055;52.054;8.524;2024-01-30T14:53:39;12.30;97.00
10030;DHT22;5055;52.054;8.524;2024-01-30T14:56:07;12.30;97.00
10030;DHT22;5055;52.054;8.524;2024-01-30T14:58:36;12.30;97.00
10030;DHT22;5055;52.054;8.524;2024-01-30T15:01:04;12.30;97.00
10030;DHT22;5055;52.054;8.524;2024-01-30T15:03:34;12.30;97.00
10030;DHT22;5055;52.054;8.524;2024-01-30T15:06:03;12.30;97.00
10030;DHT22;5055;52.054;8.524;2024-01-30T15:08:32;12.30;97.00
10030;DHT22;5055;52.054;8.524;2024-01-30T15:11:01;12.30;97.00
10030;DHT22;5055;52.054;8.524;2024-01-30T15:13:31;12.30;97.00
10030;DHT22;5055;52.054;8.524;2024-01-30T15:15:59;12.30;97.00
10030;DHT22;5055;52.054;8.524;2024-01-30T15:18:30;12.30;97.00
10030;DHT22;5055;52.054;8.524;2024-01-30T15:21:00;12.20;97.00
10030;DHT22;5055;52.054;8.524;2024-01-30T15:23:28;12.20;97.00
10030;DHT22;5055;52.054;8.524;2024-01-30T15:25:56;12.20;97.00
10030;DHT22;5055;52.054;8.524;2024-01-30T15:28:34;12.20;97.00
10030;DHT22;5055;52.054;8.524;2024-01-30T15:31:05;12.20;97.00
10030;DHT22;5055;52.054;8.524;2024-01-30T15:33:34;12.20;97.00
10030;DHT22;5055;52.054;8.524;2024-01-30T15:36:04;12.10;97.00
10030;DHT22;5055;52.054;8.524;2024-01-30T15:38:32;12.10;97.00
10030;DHT22;5055;52.054;8.524;2024-01-30T15:41:00;12.10;97.00
10030;DHT22;5055;52.054;8.524;2024-01-30T15:43:29;12.10;97.00
10030;DHT22;5055;52.054;8.524;2024-01-30T15:45:59;12.10;97.00
10030;DHT22;5055;52.054;8.524;2024-01-30T15:48:28;12.10;97.00
10030;DHT22;5055;52.054;8.524;2024-01-30T15:50:56;12.10;97.00
10030;DHT22;5055;52.054;8.524;2024-01-30T15:53:26;12.10;97.00
10030;DHT22;5055;52.054;8.524;2024-01-30T15:55:54;12.00;97.00
10030;DHT22;5055;52.054;8.524;2024-01-30T15:58:22;12.00;97.00
10030;DHT22;5055;52.054;8.524;2024-01-30T16:00:51;12.00;97.00
10030;DHT22;5055;52.054;8.524;2024-01-30T16:03:19;12.00;97.00
10030;DHT22;5055;52.054;8.524;2024-01-30T16:05:47;11.90;97.00